Nesbit, MS

3:47 PM CDT on August 29, 2015 (GMT -0500)
Skyler Estates | | Change Station
CLOSE
Current Station
Personal Weather Station
Location: Southaven, MS
Elevation: 375 ft
Nearby Weather Stations

Elev 375 ft 34.91 °N, 89.98 °W | Updated 2 minutes ago

Partly Cloudy
Partly Cloudy
89.7 °F
Feels Like 91 °F
N
2.0
Wind Variable Wind from SW
Gusts 9.0 mph

Today
High -- | Low -- °F
--% Chance of Precip.
Yesterday
High -- | Low -- °F
Precip. -- in
6:30 AM 7:30 PM
Full, 100% visible
Pressure 30.01 in
Visibility 10.0 miles
Clouds Few 6500 ft
Scattered Clouds 8000 ft
Scattered Clouds 25000 ft
Heat Index 91 °F
Dew Point 64 °F
Humidity 43%
Rainfall 0.00 in
Snow Depth Not available.
UV 4.4 out of 12
Pollen 9.20 out of 12
Air Quality Not available.
Flu Activity Not available.
METAR KMEM 291954Z 22008KT 10SM FEW065 SCT080 SCT250 33/17 A3002 RMK AO2 SLP162 T03280167
Pressure 30.01 in
Visibility 10.0 miles
Clouds Few 6500 ft
Scattered Clouds 8000 ft
Scattered Clouds 25000 ft
Heat Index 91 °F
Dew Point 64 °F
Humidity 43%
Rainfall 0.00 in
Snow Depth Not available.
UV 4.4 out of 12
Pollen 9.20 out of 12
Air Quality Not available.
Flu Activity Not available.
METAR KMEM 291954Z 22008KT 10SM FEW065 SCT080 SCT250 33/17 A3002 RMK AO2 SLP162 T03280167

10-Day Weather Forecast

×

Almanac

Astronomy

Aug. 29, 2015 Rise Set
Actual Time
Civil Twilight
Nautical Twilight
Astronomical Twilight
Moon
Length of Visible Light
Length of Day
Tomorrow will be .
, % of the Moon is Illuminated

Today's Extremes

State Highs State Lows

Community

WunderPhotos

Upload Photos

1,850,793 photos uploaded!

WunderBlogs® & News

Nearby

Air Quality

  Air Quality AQ Index Pollutant
Not available.

Snow Depth

Station Depth Elevation

Earthquake Activity

City Distance Mag. Time & Date
Minimum magnitude displayed is 2.5.

Coastal Water Temperatures

Place Temperature

Stations

Nearby Weather Stations

Station Location Temp. Windchill Dew Point Humidity Wind Precip. Elev Updated Type